createdAt,value
2019-02-19T00:00:28.048Z,58.37
2019-02-19T00:02:57.979Z,62.80
2019-02-19T00:05:27.801Z,61.37
2019-02-19T00:07:57.426Z,61.43
2019-02-19T00:10:26.642Z,62.70
2019-02-19T00:12:56.119Z,59.40
2019-02-19T00:15:25.618Z,62.13
2019-02-19T00:17:55.936Z,57.77
2019-02-19T00:20:25.318Z,57.47
2019-02-19T00:22:55.883Z,60.00
2019-02-19T00:25:25.390Z,66.73
2019-02-19T00:27:55.150Z,60.43
2019-02-19T00:30:24.410Z,56.33
2019-02-19T00:32:53.564Z,51.40
2019-02-19T00:35:23.437Z,51.37
2019-02-19T00:37:52.724Z,57.20
2019-02-19T00:40:21.907Z,55.47
2019-02-19T00:42:51.468Z,61.53
2019-02-19T00:45:20.776Z,67.67
2019-02-19T00:47:50.170Z,72.80
2019-02-19T00:50:19.340Z,73.80
2019-02-19T00:52:48.888Z,72.33
2019-02-19T00:55:18.550Z,68.10
2019-02-19T00:57:47.725Z,74.60
2019-02-19T01:00:16.971Z,70.30
2019-02-19T01:02:46.438Z,75.20
2019-02-19T01:05:15.858Z,85.15
2019-02-19T01:07:45.145Z,76.13
2019-02-19T01:10:17.167Z,80.70
2019-02-19T01:12:46.729Z,83.23
2019-02-19T01:15:15.919Z,82.50
2019-02-19T01:17:45.117Z,93.43
2019-02-19T01:20:15.921Z,83.43
2019-02-19T01:22:45.771Z,92.17
2019-02-19T01:25:15.012Z,87.23
2019-02-19T01:27:45.127Z,94.37
2019-02-19T01:30:14.367Z,103.07
2019-02-19T01:32:43.844Z,99.73
2019-02-19T01:35:13.401Z,98.97
2019-02-19T01:37:42.615Z,109.50
2019-02-19T01:40:11.816Z,106.07
2019-02-19T01:42:41.200Z,110.87
2019-02-19T01:45:10.628Z,105.60
2019-02-19T01:47:40.219Z,102.83
2019-02-19T01:50:09.977Z,103.67
2019-02-19T01:52:39.595Z,99.50
2019-02-19T01:55:09.139Z,115.60
2019-02-19T01:57:38.679Z,116.53
2019-02-19T02:00:09.571Z,119.15
2019-02-19T02:02:38.991Z,123.87
2019-02-19T02:05:08.994Z,123.42
2019-02-19T02:07:38.531Z,113.47
2019-02-19T02:10:08.930Z,134.20
2019-02-19T02:12:38.463Z,127.83
2019-02-19T02:15:08.085Z,125.90
2019-02-19T02:17:37.314Z,115.70
2019-02-19T02:20:06.983Z,120.60
2019-02-19T02:22:36.478Z,116.73
2019-02-19T02:25:06.022Z,115.77
2019-02-19T02:27:35.501Z,105.47
2019-02-19T02:30:05.132Z,92.17
2019-02-19T02:32:34.644Z,95.97
2019-02-19T02:35:04.250Z,105.10
2019-02-19T02:37:33.433Z,88.77
2019-02-19T02:40:02.912Z,99.50
2019-02-19T02:42:32.186Z,101.77
2019-02-19T02:45:01.398Z,92.20
2019-02-19T02:47:31.724Z,86.53
2019-02-19T02:50:02.603Z,93.17
2019-02-19T02:52:31.848Z,86.35
2019-02-19T02:55:01.097Z,79.77
2019-02-19T02:57:30.268Z,81.97
2019-02-19T02:59:59.807Z,88.47
2019-02-19T03:02:28.964Z,91.57
2019-02-19T03:04:58.577Z,86.40
2019-02-19T03:07:37.441Z,78.97
2019-02-19T03:10:06.927Z,88.53
2019-02-19T03:12:36.569Z,94.97
2019-02-19T03:15:06.859Z,98.13
2019-02-19T03:17:39.241Z,95.00
2019-02-19T03:20:09.388Z,103.58
2019-02-19T03:22:38.604Z,97.97
2019-02-19T03:25:09.070Z,98.75
2019-02-19T03:27:38.323Z,89.43
2019-02-19T03:30:10.887Z,88.43
2019-02-19T03:32:40.503Z,99.77
2019-02-19T03:35:09.665Z,71.30
2019-02-19T03:37:38.881Z,82.17
2019-02-19T03:40:09.304Z,83.15
2019-02-19T03:42:39.950Z,86.97
2019-02-19T03:45:10.742Z,80.40
2019-02-19T03:47:40.401Z,78.37
2019-02-19T03:50:09.801Z,74.63
2019-02-19T03:52:39.731Z,76.20
2019-02-19T03:55:10.441Z,70.13
2019-02-19T03:57:39.804Z,86.17
2019-02-19T04:00:09.304Z,77.53
2019-02-19T04:02:39.367Z,72.40
2019-02-19T04:05:08.861Z,75.05
2019-02-19T04:07:38.530Z,71.93
2019-02-19T04:10:09.052Z,69.32
2019-02-19T04:12:38.222Z,72.37
2019-02-19T04:15:07.443Z,62.37
2019-02-19T04:17:36.667Z,71.43
2019-02-19T04:20:07.092Z,66.40
2019-02-19T04:22:36.284Z,76.70
2019-02-19T04:25:05.612Z,69.93
2019-02-19T04:27:34.866Z,76.43
2019-02-19T04:30:04.458Z,77.40
2019-02-19T04:32:33.647Z,70.63
2019-02-19T04:35:03.183Z,67.50
2019-02-19T04:37:32.653Z,81.93
2019-02-19T04:40:02.182Z,71.90
2019-02-19T04:42:31.359Z,65.40
2019-02-19T04:45:00.564Z,65.30
2019-02-19T04:47:30.133Z,69.70
2019-02-19T04:50:01.797Z,74.93
2019-02-19T04:52:31.035Z,68.00
2019-02-19T04:55:01.287Z,70.83
2019-02-19T04:57:31.027Z,71.07
2019-02-19T05:00:00.600Z,85.47
2019-02-19T05:02:30.171Z,74.23
2019-02-19T05:04:59.415Z,83.33
2019-02-19T05:07:28.637Z,74.77
2019-02-19T05:09:58.092Z,70.33
2019-02-19T05:12:27.792Z,75.37
2019-02-19T05:14:57.042Z,94.07
2019-02-19T05:17:26.556Z,90.87
2019-02-19T05:19:55.997Z,90.90
2019-02-19T05:22:25.509Z,87.43
2019-02-19T05:24:55.440Z,104.83
2019-02-19T05:27:24.663Z,92.83
2019-02-19T05:29:53.882Z,87.07
2019-02-19T05:32:23.126Z,86.47
2019-02-19T05:34:52.335Z,87.60
2019-02-19T05:37:21.846Z,87.27
2019-02-19T05:39:51.485Z,100.17
2019-02-19T05:42:20.656Z,89.62
2019-02-19T05:44:49.833Z,90.97
2019-02-19T05:47:19.751Z,101.87
2019-02-19T05:49:48.948Z,97.47
2019-02-19T05:52:19.077Z,91.03
2019-02-19T05:54:48.266Z,93.23
2019-02-19T05:57:17.795Z,93.27
2019-02-19T05:59:47.389Z,100.10
2019-02-19T06:02:17.073Z,114.03
2019-02-19T06:04:46.293Z,118.53
2019-02-19T06:07:15.546Z,88.73
2019-02-19T06:09:44.807Z,92.93
2019-02-19T06:12:13.979Z,109.93
2019-02-19T06:14:43.498Z,104.60
2019-02-19T06:17:12.676Z,89.15
2019-02-19T06:19:42.009Z,95.63
2019-02-19T06:22:11.949Z,92.37
2019-02-19T06:24:42.196Z,86.40
2019-02-19T06:27:12.488Z,98.07
2019-02-19T06:29:42.828Z,100.10
2019-02-19T06:32:12.053Z,88.57
2019-02-19T06:34:41.297Z,107.40
2019-02-19T06:37:10.570Z,91.77
2019-02-19T06:39:41.609Z,99.80
2019-02-19T06:42:11.832Z,107.93
2019-02-19T06:44:41.273Z,91.50
2019-02-19T06:47:10.661Z,95.90
2019-02-19T06:49:40.183Z,112.30
2019-02-19T06:52:09.353Z,103.57
2019-02-19T06:54:38.596Z,103.33
2019-02-19T06:57:08.060Z,101.63
2019-02-19T06:59:37.310Z,102.87
2019-02-19T07:02:28.523Z,92.60
2019-02-19T07:05:00.394Z,102.60
2019-02-19T07:07:30.096Z,100.15
2019-02-19T07:09:59.825Z,111.93
2019-02-19T07:12:30.000Z,108.33
2019-02-19T07:14:59.234Z,101.63
2019-02-19T07:17:29.184Z,117.00
2019-02-19T07:19:59.891Z,96.60
2019-02-19T07:22:29.767Z,95.73
2019-02-19T07:24:58.929Z,102.97
2019-02-19T07:27:28.130Z,95.17
2019-02-19T07:29:58.680Z,106.73
2019-02-19T07:32:27.860Z,83.97
2019-02-19T07:34:59.145Z,106.27
2019-02-19T07:37:28.397Z,91.20
2019-02-19T07:39:57.913Z,90.70
2019-02-19T07:42:27.342Z,91.77
2019-02-19T07:44:56.855Z,71.27
2019-02-19T07:47:26.885Z,77.87
2019-02-19T07:49:57.942Z,82.07
2019-02-19T07:52:28.964Z,76.53
2019-02-19T07:54:59.658Z,77.07
2019-02-19T07:57:29.205Z,72.00
2019-02-19T07:59:59.150Z,65.13
2019-02-19T08:02:29.876Z,63.00
2019-02-19T08:04:59.252Z,54.43
2019-02-19T08:07:28.807Z,46.87
2019-02-19T08:09:58.400Z,51.70
2019-02-19T08:12:28.297Z,51.40
2019-02-19T08:14:57.504Z,45.93
2019-02-19T08:17:33.122Z,47.98
2019-02-19T08:19:58.343Z,47.97
2019-02-19T08:22:27.854Z,37.90
2019-02-19T08:24:57.690Z,45.03
2019-02-19T08:27:28.021Z,48.03
2019-02-19T08:29:57.711Z,39.03
2019-02-19T08:32:28.340Z,56.03
2019-02-19T08:34:57.593Z,36.13
2019-02-19T08:37:26.800Z,36.50
2019-02-19T08:39:57.985Z,39.40
2019-02-19T08:42:27.514Z,38.13
2019-02-19T08:44:57.110Z,34.40
2019-02-19T08:47:29.762Z,39.50
2019-02-19T08:49:59.095Z,36.33
2019-02-19T08:52:28.808Z,33.13
2019-02-19T08:54:58.311Z,38.10
2019-02-19T08:57:27.465Z,37.53
2019-02-19T08:59:57.063Z,30.50
2019-02-19T09:02:26.584Z,33.23
2019-02-19T09:04:55.758Z,27.80
2019-02-19T09:07:26.913Z,25.10
2019-02-19T09:09:56.427Z,28.87
2019-02-19T09:12:25.671Z,27.70
2019-02-19T09:14:55.140Z,26.77
2019-02-19T09:17:24.517Z,34.77
2019-02-19T09:19:53.674Z,25.53
2019-02-19T09:22:23.480Z,33.13
2019-02-19T09:24:53.103Z,24.50
2019-02-19T09:27:22.299Z,28.03
2019-02-19T09:29:51.796Z,32.03
2019-02-19T09:32:21.703Z,26.87
2019-02-19T09:34:52.766Z,26.97
2019-02-19T09:37:22.353Z,25.97
2019-02-19T09:39:51.587Z,26.40
2019-02-19T09:42:20.728Z,29.40
2019-02-19T09:44:51.038Z,26.23
2019-02-19T09:47:20.246Z,18.10
2019-02-19T09:49:49.807Z,27.87
2019-02-19T09:52:18.996Z,20.03
2019-02-19T09:54:48.662Z,29.77
2019-02-19T09:57:17.831Z,17.93
2019-02-19T09:59:47.359Z,12.83
2019-02-19T10:02:17.263Z,26.75
2019-02-19T10:04:47.457Z,25.30
2019-02-19T10:07:16.732Z,16.40
2019-02-19T10:09:46.252Z,29.20
2019-02-19T10:12:15.768Z,28.63
2019-02-19T10:14:45.193Z,22.70
2019-02-19T10:17:14.513Z,28.80
2019-02-19T10:19:45.516Z,27.53
2019-02-19T10:22:16.180Z,24.70
2019-02-19T10:24:45.661Z,25.83
2019-02-19T10:27:14.949Z,39.70
2019-02-19T10:29:44.188Z,27.60
2019-02-19T10:32:13.684Z,26.40
2019-02-19T10:34:44.895Z,28.10
2019-02-19T10:37:14.555Z,30.93
2019-02-19T10:39:43.720Z,29.30
2019-02-19T10:42:12.889Z,22.90
2019-02-19T10:44:43.838Z,32.90
2019-02-19T10:47:14.463Z,48.53
2019-02-19T10:49:43.614Z,33.60
2019-02-19T10:52:14.595Z,30.73
2019-02-19T10:54:44.111Z,23.83
2019-02-19T10:57:13.635Z,27.33
2019-02-19T10:59:42.856Z,32.57
2019-02-19T11:02:12.022Z,36.13
2019-02-19T11:04:42.244Z,39.93
2019-02-19T11:07:12.775Z,30.43
2019-02-19T11:09:41.961Z,38.67
2019-02-19T11:12:11.393Z,30.67
2019-02-19T11:14:40.556Z,36.87
2019-02-19T11:17:10.135Z,30.33
2019-02-19T11:19:39.363Z,32.90
2019-02-19T11:22:09.643Z,28.17
2019-02-19T11:24:39.013Z,28.43
2019-02-19T11:27:08.521Z,24.00
2019-02-19T11:29:38.163Z,29.13
2019-02-19T11:32:07.844Z,30.50
2019-02-19T11:34:37.585Z,32.33
2019-02-19T11:37:07.169Z,26.20
2019-02-19T11:39:37.244Z,24.50
2019-02-19T11:42:07.776Z,40.30
2019-02-19T11:44:37.343Z,29.70
2019-02-19T11:47:06.687Z,29.10
2019-02-19T11:49:35.984Z,27.83
2019-02-19T11:52:05.219Z,28.97
2019-02-19T11:54:34.723Z,34.90
2019-02-19T11:57:04.239Z,23.70
2019-02-19T11:59:37.543Z,28.87
2019-02-19T12:02:12.868Z,30.23
2019-02-19T12:04:44.635Z,31.47
2019-02-19T12:07:16.210Z,30.07
2019-02-19T12:09:46.009Z,34.53
2019-02-19T12:12:17.875Z,31.07
2019-02-19T12:14:47.859Z,28.23
2019-02-19T12:17:18.717Z,33.90
2019-02-19T12:19:50.596Z,23.60
2019-02-19T12:22:21.216Z,42.23
2019-02-19T12:24:51.096Z,54.23
2019-02-19T12:27:21.607Z,43.50
2019-02-19T12:29:51.544Z,32.60
2019-02-19T12:32:21.062Z,30.82
2019-02-19T12:34:50.858Z,33.17
2019-02-19T12:37:21.429Z,35.17
2019-02-19T12:39:50.979Z,26.73
2019-02-19T12:42:22.497Z,23.90
2019-02-19T12:44:53.459Z,27.90
2019-02-19T12:47:22.993Z,27.40
2019-02-19T12:49:54.031Z,35.30
2019-02-19T12:52:27.088Z,31.33
2019-02-19T12:54:57.551Z,31.07
2019-02-19T12:57:27.035Z,25.63
2019-02-19T12:59:56.900Z,25.73
2019-02-19T13:02:26.546Z,34.17
2019-02-19T13:04:56.670Z,24.17
2019-02-19T13:07:27.999Z,21.77
2019-02-19T13:09:57.263Z,18.50
2019-02-19T13:12:26.545Z,21.50
2019-02-19T13:14:56.101Z,25.03
2019-02-19T13:17:25.277Z,23.13
2019-02-19T13:19:55.525Z,22.60
2019-02-19T13:22:25.440Z,21.83
2019-02-19T13:24:54.964Z,25.27
2019-02-19T13:27:24.487Z,29.10
2019-02-19T13:29:55.565Z,23.17
2019-02-19T13:32:25.042Z,27.23
2019-02-19T13:34:55.262Z,24.40
2019-02-19T13:37:24.839Z,32.43
2019-02-19T13:39:55.113Z,30.03
2019-02-19T13:42:24.671Z,31.13
2019-02-19T13:44:54.148Z,23.50
2019-02-19T13:47:23.699Z,25.47
2019-02-19T13:49:53.386Z,20.43
2019-02-19T13:52:51.876Z,18.10
2019-02-19T13:55:27.475Z,19.83
2019-02-19T13:57:57.523Z,29.00
2019-02-19T14:00:28.471Z,16.13
2019-02-19T14:02:59.835Z,15.33
2019-02-19T14:05:29.361Z,17.23
2019-02-19T14:07:58.518Z,16.93
2019-02-19T14:10:28.177Z,11.33
2019-02-19T14:12:57.699Z,15.23
2019-02-19T14:15:53.833Z,14.90
2019-02-19T14:18:40.913Z,13.73
2019-02-19T14:21:29.023Z,18.57
2019-02-19T14:24:17.120Z,17.30
2019-02-19T14:27:05.348Z,16.23
2019-02-19T14:29:51.202Z,18.47
2019-02-19T14:32:29.706Z,10.93
2019-02-19T14:35:08.334Z,12.10
2019-02-19T14:37:59.889Z,20.33
2019-02-19T14:40:47.997Z,24.70
2019-02-19T14:43:35.255Z,11.57
2019-02-19T14:46:15.152Z,13.13
2019-02-19T14:48:59.787Z,10.60
2019-02-19T14:51:46.855Z,10.50
2019-02-19T14:54:34.555Z,8.33
2019-02-19T14:57:31.979Z,4.70
2019-02-19T15:00:29.424Z,11.53
2019-02-19T15:03:16.958Z,10.33
2019-02-19T15:06:04.312Z,11.33
2019-02-19T15:08:50.149Z,20.83
2019-02-19T15:11:48.383Z,14.63
2019-02-19T15:14:52.002Z,12.07
2019-02-19T15:17:55.330Z,14.73
2019-02-19T15:20:32.832Z,11.97
2019-02-19T15:23:20.990Z,16.27
2019-02-19T15:26:06.100Z,13.50
2019-02-19T15:28:54.211Z,13.40
2019-02-19T15:31:48.608Z,10.33
2019-02-19T15:34:38.479Z,9.73
2019-02-19T15:37:27.355Z,15.30
2019-02-19T15:40:15.466Z,12.70
2019-02-19T15:43:05.145Z,12.30
2019-02-19T15:46:05.517Z,21.90
2019-02-19T15:49:02.523Z,14.07
2019-02-19T15:51:49.924Z,10.17
2019-02-19T15:54:41.093Z,19.97
2019-02-19T15:57:44.328Z,19.63
2019-02-19T16:00:35.499Z,11.20
2019-02-19T16:03:12.913Z,15.53
2019-02-19T16:05:55.922Z,15.57
2019-02-19T16:08:44.533Z,16.07
2019-02-19T16:11:35.723Z,12.30
2019-02-19T16:14:16.631Z,13.77
2019-02-19T16:17:10.212Z,13.53
2019-02-19T16:19:56.804Z,14.83
2019-02-19T16:22:41.206Z,17.90
2019-02-19T16:25:28.552Z,18.67
2019-02-19T16:28:15.867Z,10.60
2019-02-19T16:31:16.771Z,14.83
2019-02-19T16:34:14.259Z,24.23
2019-02-19T16:37:08.467Z,12.73
2019-02-19T16:39:59.954Z,14.70
2019-02-19T16:42:46.671Z,12.57
2019-02-19T16:45:23.064Z,11.50
2019-02-19T16:48:10.087Z,20.83
2019-02-19T16:50:58.217Z,11.47
2019-02-19T16:53:46.376Z,11.40
2019-02-19T16:56:38.218Z,13.98
2019-02-19T16:59:32.701Z,14.53
2019-02-19T17:02:23.845Z,10.50
2019-02-19T17:05:07.693Z,18.10
2019-02-19T17:07:55.836Z,13.50
2019-02-19T17:10:47.060Z,11.63
2019-02-19T17:13:26.518Z,8.93
2019-02-19T17:16:08.648Z,12.37
2019-02-19T17:19:09.179Z,10.63
2019-02-19T17:21:47.265Z,12.03
2019-02-19T17:24:38.408Z,20.07
2019-02-19T17:27:30.794Z,17.37
2019-02-19T17:30:20.366Z,12.70
2019-02-19T17:33:14.424Z,14.63
2019-02-19T17:35:53.274Z,15.60
2019-02-19T17:38:28.173Z,13.90
2019-02-19T17:41:06.266Z,11.73
2019-02-19T17:43:54.424Z,12.70
2019-02-19T17:46:52.050Z,20.30
2019-02-19T17:49:39.048Z,17.10
2019-02-19T17:52:36.344Z,25.87
2019-02-19T17:55:20.036Z,18.37
2019-02-19T17:57:59.394Z,14.73
2019-02-19T18:00:44.021Z,12.23
2019-02-19T18:03:32.374Z,15.50
2019-02-19T18:06:20.001Z,11.73
2019-02-19T18:08:59.206Z,11.87
2019-02-19T18:11:48.709Z,25.53
2019-02-19T18:14:50.217Z,14.17
2019-02-19T18:17:36.383Z,15.90
2019-02-19T18:20:06.144Z,20.77
2019-02-19T18:22:35.297Z,16.53
2019-02-19T18:25:04.486Z,19.50
2019-02-19T18:27:35.063Z,18.10
2019-02-19T18:30:04.786Z,11.47
2019-02-19T18:32:36.315Z,11.33
2019-02-19T18:35:05.454Z,17.87
2019-02-19T18:37:34.620Z,20.40
2019-02-19T18:40:04.189Z,19.77
2019-02-19T18:42:33.399Z,21.03
2019-02-19T18:45:03.065Z,13.83
2019-02-19T18:47:33.810Z,20.30
2019-02-19T18:50:04.300Z,27.90
2019-02-19T18:52:34.366Z,7.30
2019-02-19T18:55:04.056Z,12.43
2019-02-19T18:57:33.657Z,8.63
2019-02-19T19:00:02.918Z,17.30
2019-02-19T19:02:32.485Z,17.17
2019-02-19T19:05:01.663Z,11.20
2019-02-19T19:07:31.427Z,14.03
2019-02-19T19:10:00.846Z,19.30
2019-02-19T19:12:30.105Z,11.00
2019-02-19T19:14:59.846Z,11.23
2019-02-19T19:17:29.389Z,9.77
2019-02-19T19:19:58.564Z,26.03
2019-02-19T19:22:29.571Z,13.67
2019-02-19T19:24:58.759Z,23.13
2019-02-19T19:27:28.562Z,11.70
2019-02-19T19:29:58.462Z,33.87
2019-02-19T19:32:30.137Z,8.78
2019-02-19T19:34:59.401Z,9.73
2019-02-19T19:37:28.607Z,11.37
2019-02-19T19:39:59.593Z,12.97
2019-02-19T19:42:29.342Z,12.75
2019-02-19T19:44:59.608Z,6.17
2019-02-19T19:47:28.878Z,15.80
2019-02-19T19:49:58.236Z,8.67
2019-02-19T19:52:27.697Z,19.77
2019-02-19T19:54:56.986Z,12.33
2019-02-19T19:57:27.941Z,14.57
2019-02-19T19:59:57.166Z,11.07
2019-02-19T20:02:26.437Z,9.60
2019-02-19T20:04:55.936Z,13.17
2019-02-19T20:07:28.415Z,10.00
2019-02-19T20:09:58.300Z,10.63
2019-02-19T20:12:28.358Z,13.45
2019-02-19T20:14:57.732Z,11.30
2019-02-19T20:17:26.959Z,14.93
2019-02-19T20:19:56.687Z,10.37
2019-02-19T20:22:26.311Z,17.13
2019-02-19T20:24:55.773Z,12.63
2019-02-19T20:27:25.281Z,14.20
2019-02-19T20:29:55.230Z,16.23
2019-02-19T20:32:26.760Z,28.83
2019-02-19T20:34:55.935Z,11.67
2019-02-19T20:37:25.140Z,13.80
2019-02-19T20:39:55.565Z,17.30
2019-02-19T20:42:24.785Z,10.53
2019-02-19T20:44:54.151Z,11.97
2019-02-19T20:47:23.713Z,18.33
2019-02-19T20:49:53.501Z,21.63
2019-02-19T20:52:23.104Z,12.50
2019-02-19T20:54:52.725Z,15.70
2019-02-19T20:57:22.462Z,12.53
2019-02-19T20:59:51.894Z,15.50
2019-02-19T21:02:22.681Z,18.17
2019-02-19T21:04:52.301Z,19.90
2019-02-19T21:07:21.959Z,19.00
2019-02-19T21:09:52.239Z,17.03
2019-02-19T21:12:21.476Z,24.53
2019-02-19T21:14:50.940Z,20.93
2019-02-19T21:17:20.501Z,36.50
2019-02-19T21:19:50.037Z,23.00
2019-02-19T21:22:19.680Z,24.67
2019-02-19T21:24:48.846Z,27.10
2019-02-19T21:27:18.211Z,19.67
2019-02-19T21:29:47.450Z,20.97
2019-02-19T21:32:16.665Z,25.20
2019-02-19T21:34:45.942Z,32.87
2019-02-19T21:37:15.151Z,26.10
2019-02-19T21:39:45.806Z,25.83
2019-02-19T21:42:14.982Z,21.63
2019-02-19T21:44:44.496Z,18.30
2019-02-19T21:47:13.745Z,26.00
2019-02-19T21:49:43.065Z,30.97
2019-02-19T21:52:12.466Z,34.30
2019-02-19T21:54:42.099Z,30.73
2019-02-19T21:57:11.229Z,26.97
2019-02-19T21:59:40.807Z,33.23
2019-02-19T22:02:16.281Z,30.27
2019-02-19T22:04:41.246Z,34.27
2019-02-19T22:07:10.994Z,27.30
2019-02-19T22:09:40.470Z,26.60
2019-02-19T22:12:09.661Z,21.17
2019-02-19T22:14:38.843Z,25.40
2019-02-19T22:17:10.523Z,34.00
2019-02-19T22:19:41.430Z,26.10
2019-02-19T22:22:13.494Z,38.00
2019-02-19T22:24:42.788Z,32.47
2019-02-19T22:27:12.383Z,37.93
2019-02-19T22:29:41.579Z,36.73
2019-02-19T22:32:12.167Z,39.50
2019-02-19T22:34:41.348Z,37.53
2019-02-19T22:37:10.554Z,28.77
2019-02-19T22:39:39.844Z,32.57
2019-02-19T22:42:09.072Z,43.13
2019-02-19T22:44:38.223Z,39.63
2019-02-19T22:47:07.732Z,27.60
2019-02-19T22:49:37.557Z,33.00
2019-02-19T22:52:12.663Z,34.55
2019-02-19T22:54:58.849Z,35.60
2019-02-19T22:57:28.012Z,34.80
2019-02-19T22:59:57.535Z,24.53
2019-02-19T23:02:28.560Z,35.63
2019-02-19T23:04:57.719Z,28.07
2019-02-19T23:07:26.927Z,45.60
2019-02-19T23:09:56.545Z,24.27
2019-02-19T23:12:25.940Z,32.48
2019-02-19T23:14:55.096Z,33.90
2019-02-19T23:17:24.998Z,30.07
2019-02-19T23:19:54.324Z,32.30
2019-02-19T23:22:23.802Z,26.00
2019-02-19T23:24:54.449Z,32.70
2019-02-19T23:27:23.646Z,25.50
2019-02-19T23:29:52.881Z,34.30
2019-02-19T23:32:22.555Z,40.97
2019-02-19T23:35:10.917Z,27.50
2019-02-19T23:37:40.523Z,37.00
2019-02-19T23:40:09.684Z,30.07
2019-02-19T23:42:39.251Z,30.10
2019-02-19T23:45:09.463Z,25.37
2019-02-19T23:47:38.638Z,33.53
2019-02-19T23:50:09.020Z,30.10
2019-02-19T23:52:38.232Z,37.20
2019-02-19T23:55:07.790Z,30.93
2019-02-19T23:57:37.366Z,24.80
